Time;durP1;ratioP1;P1;durP2;ratioP2;P2;SDS_P1;SDS_P2;PMS_P1;PMS_P2;Temp;Humidity;BMP_temperature;BMP_pressure;BME280_temperature;BME280_humidity;BME280_pressure;Samples;Min_cycle;Max_cycle;Signal;HPM_P1;HPM_P2
2024/03/27 00:02:19;;;;;;;5.75;1.98;;;9.70;99.90;;;;;;4971518;28;20530;-52
2024/03/27 00:04:44;;;;;;;5.38;1.63;;;9.70;99.90;;;;;;4967320;28;20046;-50
2024/03/27 00:07:10;;;;;;;3.45;1.23;;;9.70;99.90;;;;;;4972317;28;20019;-53
2024/03/27 00:09:36;;;;;;;4.22;1.85;;;9.70;99.90;;;;;;4970419;28;20542;-51
2024/03/27 00:12:02;;;;;;;5.07;1.95;;;9.60;99.90;;;;;;4970634;28;20031;-54
2024/03/27 00:14:28;;;;;;;5.95;1.73;;;9.70;99.90;;;;;;4971221;28;20030;-54
2024/03/27 00:16:53;;;;;;;4.18;2.08;;;9.70;99.90;;;;;;4966988;28;20740;-52
2024/03/27 00:19:19;;;;;;;3.50;1.70;;;9.70;99.90;;;;;;4965925;28;20070;-53
2024/03/27 00:21:44;;;;;;;3.10;1.75;;;9.70;99.90;;;;;;4966081;28;20023;-50
2024/03/27 00:24:10;;;;;;;3.92;2.38;;;9.70;99.90;;;;;;4965808;28;20479;-53
2024/03/27 00:26:35;;;;;;;2.65;1.70;;;9.80;99.90;;;;;;4972261;28;20034;-49
2024/03/27 00:29:01;;;;;;;2.95;1.58;;;9.70;99.90;;;;;;4972656;28;20023;-54
2024/03/27 00:31:28;;;;;;;3.45;1.58;;;9.80;99.90;;;;;;4967727;28;20130;-50
2024/03/27 00:33:54;;;;;;;4.10;2.00;;;9.80;99.90;;;;;;4968200;28;20026;-49
2024/03/27 00:36:19;;;;;;;4.03;2.10;;;9.80;99.90;;;;;;4965321;28;20037;-53
2024/03/27 00:38:45;;;;;;;9.85;3.78;;;9.80;99.90;;;;;;4964368;28;20043;-51
2024/03/27 00:41:11;;;;;;;5.35;1.80;;;9.90;99.90;;;;;;4970499;28;20023;-49
2024/03/27 00:43:36;;;;;;;5.53;2.03;;;9.90;99.90;;;;;;4967773;28;20070;-49
2024/03/27 00:46:03;;;;;;;2.60;1.55;;;10.00;99.90;;;;;;4968594;28;20030;-52
2024/03/27 00:48:29;;;;;;;1.92;1.52;;;10.00;99.90;;;;;;4970215;28;20426;-51
2024/03/27 00:50:55;;;;;;;6.15;1.90;;;10.00;99.90;;;;;;4967692;28;20089;-52
2024/03/27 00:53:20;;;;;;;6.35;2.35;;;10.00;99.90;;;;;;4966390;28;20035;-52
2024/03/27 00:56:03;;;;;;;2.92;2.00;;;9.90;99.90;;;;;;4963435;28;20030;-51
2024/03/27 00:58:29;;;;;;;2.63;1.60;;;9.80;99.90;;;;;;4955830;28;20470;-53
2024/03/27 01:00:56;;;;;;;3.10;1.65;;;9.70;99.90;;;;;;4963594;28;20109;-51
2024/03/27 01:03:23;;;;;;;2.80;1.92;;;9.70;99.90;;;;;;4960005;28;20047;-50
2024/03/27 01:05:49;;;;;;;5.72;1.90;;;9.50;99.90;;;;;;4965356;28;20106;-53
2024/03/27 01:08:14;;;;;;;2.67;1.80;;;9.50;99.90;;;;;;4964369;28;20102;-52
2024/03/27 01:10:40;;;;;;;3.95;1.60;;;9.40;99.90;;;;;;4970184;28;20046;-49
2024/03/27 01:13:07;;;;;;;4.25;2.00;;;9.30;99.90;;;;;;4968903;28;20022;-51
2024/03/27 01:15:33;;;;;;;6.32;2.00;;;9.30;99.90;;;;;;4968789;28;20047;-56
2024/03/27 01:17:59;;;;;;;2.08;1.70;;;9.20;99.90;;;;;;4968187;28;20073;-53
2024/03/27 01:20:24;;;;;;;4.75;1.63;;;9.10;99.90;;;;;;4969827;28;20527;-54
2024/03/27 01:22:50;;;;;;;5.00;2.20;;;9.10;99.90;;;;;;4963380;28;20027;-49
2024/03/27 01:25:15;;;;;;;3.92;2.05;;;9.10;99.90;;;;;;4962304;28;20053;-52
2024/03/27 01:27:41;;;;;;;3.35;2.08;;;9.00;99.90;;;;;;4961924;28;20055;-54
2024/03/27 01:30:07;;;;;;;7.00;2.10;;;9.00;99.90;;;;;;4947637;28;20691;-50
2024/03/27 01:32:36;;;;;;;4.88;1.95;;;9.00;99.90;;;;;;4959179;28;20026;-55
2024/03/27 01:35:03;;;;;;;8.63;2.17;;;8.90;99.90;;;;;;4963625;28;20510;-52
2024/03/27 01:37:28;;;;;;;3.92;1.70;;;8.80;99.90;;;;;;4962019;28;20110;-49
2024/03/27 01:39:54;;;;;;;3.40;1.83;;;8.70;99.90;;;;;;4993926;23;20160;-56
2024/03/27 01:42:20;;;;;;;2.33;1.58;;;8.70;99.90;;;;;;4987123;28;20033;-55
2024/03/27 01:44:45;;;;;;;4.63;2.30;;;8.50;99.90;;;;;;4986557;28;20109;-55
2024/03/27 01:47:14;;;;;;;5.13;2.28;;;8.40;99.90;;;;;;4979554;28;20401;-54
2024/03/27 01:49:40;;;;;;;4.90;1.45;;;8.30;99.90;;;;;;4971906;28;20069;-56
2024/03/27 01:52:07;;;;;;;3.90;2.05;;;8.30;99.90;;;;;;4970670;28;20054;-57
2024/03/27 01:54:33;;;;;;;4.13;2.30;;;8.20;99.90;;;;;;4969038;28;20065;-56
2024/03/27 01:57:02;;;;;;;3.42;2.20;;;8.10;99.90;;;;;;4971661;28;20039;-55
2024/03/27 01:59:28;;;;;;;4.93;1.83;;;8.00;99.90;;;;;;4959022;28;20066;-55
2024/03/27 02:01:55;;;;;;;4.57;1.88;;;8.00;99.90;;;;;;4969240;28;20027;-54
2024/03/27 02:04:20;;;;;;;5.43;1.98;;;8.00;99.90;;;;;;4968801;28;20106;-58
2024/03/27 02:06:46;;;;;;;8.27;2.05;;;8.00;99.90;;;;;;4973068;28;20105;-58
2024/03/27 02:09:12;;;;;;;5.10;2.05;;;8.00;99.90;;;;;;4974034;28;20070;-58
2024/03/27 02:11:40;;;;;;;3.85;2.13;;;8.00;99.90;;;;;;4974656;28;20070;-54
2024/03/27 02:14:05;;;;;;;8.40;2.33;;;8.00;99.90;;;;;;4973851;28;20114;-53
2024/03/27 02:16:31;;;;;;;2.90;2.10;;;8.00;99.90;;;;;;4967838;28;20121;-55
2024/03/27 02:18:56;;;;;;;3.90;2.53;;;8.00;99.90;;;;;;4973328;28;20055;-54
2024/03/27 02:21:22;;;;;;;3.58;2.00;;;8.10;99.90;;;;;;4974606;28;20053;-54
2024/03/27 02:23:58;;;;;;;6.25;2.08;;;8.10;99.90;;;;;;4971294;28;20050;-56
2024/03/27 02:26:34;;;;;;;3.15;1.95;;;8.10;99.90;;;;;;4973282;28;20486;-56
2024/03/27 02:29:00;;;;;;;4.28;2.22;;;8.10;99.90;;;;;;4975158;28;20034;-55
2024/03/27 02:31:25;;;;;;;3.30;2.03;;;8.10;99.90;;;;;;4972427;28;20158;-57
2024/03/27 02:33:51;;;;;;;3.78;2.38;;;8.00;99.90;;;;;;4974256;28;20597;-54
2024/03/27 02:36:16;;;;;;;4.30;1.95;;;8.00;99.90;;;;;;4973301;28;20023;-55
2024/03/27 02:38:42;;;;;;;5.22;2.08;;;7.90;99.90;;;;;;4972312;28;20161;-55
2024/03/27 02:41:08;;;;;;;6.45;2.70;;;7.90;99.90;;;;;;4973024;28;20019;-57
2024/03/27 02:43:33;;;;;;;5.57;2.28;;;7.90;99.90;;;;;;4972776;28;20033;-56
2024/03/27 02:45:59;;;;;;;4.47;1.92;;;7.80;99.90;;;;;;4973729;28;20041;-59
2024/03/27 02:48:24;;;;;;;4.85;2.45;;;7.70;99.90;;;;;;4973689;28;20109;-55
2024/03/27 02:50:50;;;;;;;3.10;1.95;;;7.70;99.90;;;;;;4971351;28;20070;-57
2024/03/27 02:53:16;;;;;;;5.50;2.10;;;7.70;99.90;;;;;;4973540;28;20035;-58
2024/03/27 02:55:41;;;;;;;5.28;2.10;;;7.70;99.90;;;;;;4966505;28;20035;-58
2024/03/27 02:58:07;;;;;;;4.75;2.28;;;7.70;99.90;;;;;;4959699;28;20065;-55
2024/03/27 03:00:32;;;;;;;7.90;2.22;;;7.80;99.90;;;;;;4969447;28;20031;-54
2024/03/27 03:02:58;;;;;;;4.63;2.05;;;7.80;99.90;;;;;;4965358;28;20130;-54
2024/03/27 03:05:23;;;;;;;5.30;2.47;;;7.80;99.90;;;;;;4974388;28;20034;-55
2024/03/27 03:07:49;;;;;;;4.93;2.17;;;7.80;99.90;;;;;;4972765;28;20023;-54
2024/03/27 03:10:15;;;;;;;2.22;1.48;;;7.80;99.90;;;;;;4971667;28;20025;-54
2024/03/27 03:12:40;;;;;;;5.50;1.77;;;7.70;99.90;;;;;;4972003;28;20038;-57
2024/03/27 03:15:06;;;;;;;3.47;2.30;;;7.70;99.90;;;;;;4969917;28;20041;-54
2024/03/27 03:17:32;;;;;;;9.15;2.00;;;7.70;99.90;;;;;;4973877;28;20081;-57
2024/03/27 03:19:57;;;;;;;4.95;2.10;;;7.70;99.90;;;;;;4973573;28;20468;-56
2024/03/27 03:22:23;;;;;;;4.07;1.92;;;7.80;99.90;;;;;;4973530;28;20065;-54
2024/03/27 03:24:49;;;;;;;5.88;2.38;;;7.80;99.90;;;;;;4972686;28;20030;-54
2024/03/27 03:27:15;;;;;;;3.50;1.92;;;7.80;99.90;;;;;;4973250;28;20026;-55
2024/03/27 03:29:41;;;;;;;7.90;2.20;;;7.90;99.90;;;;;;4973116;28;20042;-55
2024/03/27 03:32:07;;;;;;;3.20;1.92;;;7.90;99.90;;;;;;4973135;28;20030;-56
2024/03/27 03:34:32;;;;;;;3.85;2.10;;;7.90;99.90;;;;;;4968685;28;20027;-58
2024/03/27 03:36:58;;;;;;;3.35;1.70;;;7.90;99.90;;;;;;4970712;28;20035;-56
2024/03/27 03:39:23;;;;;;;5.47;2.25;;;7.90;99.90;;;;;;4972333;28;20626;-56
2024/03/27 03:41:49;;;;;;;3.55;2.10;;;7.80;99.90;;;;;;4971922;28;20470;-57
2024/03/27 03:44:14;;;;;;;3.38;1.92;;;7.80;99.90;;;;;;4971990;28;20030;-56
2024/03/27 03:46:40;;;;;;;7.43;2.00;;;7.80;99.90;;;;;;4972398;28;20031;-56
2024/03/27 03:49:05;;;;;;;8.63;2.60;;;7.70;99.90;;;;;;4973230;28;20518;-55
2024/03/27 03:51:31;;;;;;;5.57;2.45;;;7.70;99.90;;;;;;4969464;28;20030;-55
2024/03/27 03:53:56;;;;;;;6.60;2.15;;;7.60;99.90;;;;;;4971834;28;20449;-55
2024/03/27 03:56:22;;;;;;;5.55;2.17;;;7.60;99.90;;;;;;4973570;28;20046;-54
2024/03/27 03:58:47;;;;;;;4.60;1.77;;;7.60;99.90;;;;;;4959409;28;20039;-55
2024/03/27 04:01:13;;;;;;;4.60;1.95;;;7.60;99.90;;;;;;4973045;28;20070;-54
2024/03/27 04:03:39;;;;;;;4.38;2.13;;;7.60;99.90;;;;;;4971901;28;20037;-54
2024/03/27 04:06:05;;;;;;;4.05;2.35;;;7.60;99.90;;;;;;4970530;28;20491;-54
2024/03/27 04:08:30;;;;;;;6.20;2.55;;;7.60;99.90;;;;;;4972466;28;20411;-58
2024/03/27 04:10:56;;;;;;;4.80;2.15;;;7.60;99.90;;;;;;4968842;28;20022;-58
2024/03/27 04:13:22;;;;;;;4.38;2.33;;;7.60;99.90;;;;;;4969231;28;20035;-55
2024/03/27 04:15:47;;;;;;;7.82;2.13;;;7.70;99.90;;;;;;4970353;28;20022;-56
2024/03/27 04:18:13;;;;;;;2.70;1.77;;;7.70;99.90;;;;;;4972123;28;20732;-57
2024/03/27 04:20:42;;;;;;;2.50;1.80;;;7.70;99.90;;;;;;4967360;28;20027;-57
2024/03/27 04:23:08;;;;;;;7.18;2.47;;;7.70;99.90;;;;;;4972536;28;20490;-53
2024/03/27 04:25:34;;;;;;;4.82;2.00;;;7.70;99.90;;;;;;4972695;28;20118;-57
2024/03/27 04:27:59;;;;;;;3.95;1.95;;;7.70;99.90;;;;;;4971891;28;20097;-58
2024/03/27 04:30:26;;;;;;;7.10;2.20;;;7.70;99.90;;;;;;4970246;28;20495;-54
2024/03/27 04:32:53;;;;;;;2.72;1.85;;;7.70;99.90;;;;;;4972313;28;20039;-54
2024/03/27 04:35:18;;;;;;;13.18;2.50;;;7.70;99.90;;;;;;4972730;28;20058;-56
2024/03/27 04:37:45;;;;;;;5.38;2.20;;;7.70;99.90;;;;;;4972155;28;20071;-56
2024/03/27 04:40:11;;;;;;;4.75;2.00;;;7.70;99.90;;;;;;4972120;28;20042;-57
2024/03/27 04:42:37;;;;;;;2.38;1.52;;;7.70;99.90;;;;;;4970577;28;20423;-54
2024/03/27 04:45:08;;;;;;;2.80;1.92;;;7.80;99.90;;;;;;4971323;28;20471;-55
2024/03/27 04:47:34;;;;;;;2.83;2.00;;;7.80;99.90;;;;;;4971603;28;20030;-55
2024/03/27 04:50:00;;;;;;;5.50;2.22;;;7.70;99.90;;;;;;4970388;28;20038;-55
2024/03/27 04:52:26;;;;;;;4.78;2.33;;;7.70;99.90;;;;;;4958757;28;20042;-56
2024/03/27 04:54:52;;;;;;;5.00;2.28;;;7.70;99.90;;;;;;4969905;28;20041;-60
2024/03/27 04:57:17;;;;;;;4.10;2.20;;;7.70;99.90;;;;;;4971281;28;20551;-57
2024/03/27 04:59:43;;;;;;;4.50;2.42;;;7.70;99.90;;;;;;4958895;28;20053;-57
2024/03/27 05:02:09;;;;;;;7.20;2.10;;;7.70;99.90;;;;;;4969927;28;20030;-57
2024/03/27 05:04:34;;;;;;;4.15;2.28;;;7.70;99.90;;;;;;4968950;28;20039;-55
2024/03/27 05:07:00;;;;;;;5.03;2.28;;;7.70;99.90;;;;;;4969805;28;20038;-54
2024/03/27 05:09:26;;;;;;;4.68;2.20;;;7.70;99.90;;;;;;4971913;28;20030;-55
2024/03/27 05:11:52;;;;;;;7.82;2.65;;;7.70;99.90;;;;;;4970924;28;20031;-56
2024/03/27 05:14:20;;;;;;;3.90;2.20;;;7.70;99.90;;;;;;4965555;28;20031;-55
2024/03/27 05:16:46;;;;;;;4.13;2.40;;;7.70;99.90;;;;;;4970176;28;20026;-57
2024/03/27 05:19:12;;;;;;;5.43;2.22;;;7.70;99.90;;;;;;4970494;28;20579;-56
2024/03/27 05:21:38;;;;;;;4.50;2.45;;;7.70;99.90;;;;;;4968871;28;20041;-54
2024/03/27 05:24:04;;;;;;;4.28;2.03;;;7.70;99.90;;;;;;4970252;28;20094;-56
2024/03/27 05:26:30;;;;;;;5.57;2.45;;;7.70;99.90;;;;;;4971972;28;20035;-53
2024/03/27 05:28:56;;;;;;;3.40;2.15;;;7.70;99.90;;;;;;4964962;28;20023;-54
2024/03/27 05:31:22;;;;;;;3.55;2.08;;;7.70;99.90;;;;;;4967679;28;20034;-54
2024/03/27 05:33:47;;;;;;;3.08;1.92;;;7.70;99.90;;;;;;4966668;28;20499;-57
2024/03/27 05:36:13;;;;;;;4.07;2.25;;;7.80;99.90;;;;;;4970392;28;20041;-55
2024/03/27 05:38:40;;;;;;;4.13;2.28;;;7.80;99.90;;;;;;4970700;28;20391;-54
2024/03/27 05:41:06;;;;;;;5.72;2.35;;;7.90;99.90;;;;;;4971483;28;20118;-58
2024/03/27 05:43:31;;;;;;;6.68;2.60;;;7.90;99.90;;;;;;4970571;28;20085;-54
2024/03/27 05:45:57;;;;;;;9.32;2.25;;;7.90;99.90;;;;;;4970667;28;20094;-57
2024/03/27 05:48:23;;;;;;;11.32;2.30;;;7.90;99.90;;;;;;4970155;28;20038;-55
2024/03/27 05:50:52;;;;;;;4.00;2.53;;;7.90;99.90;;;;;;4971215;28;20098;-55
2024/03/27 05:53:17;;;;;;;7.20;2.20;;;8.00;99.90;;;;;;4968641;28;20049;-57
2024/03/27 05:55:53;;;;;;;8.70;3.05;;;8.00;99.90;;;;;;4968649;28;20035;-55
2024/03/27 05:58:18;;;;;;;9.20;2.60;;;8.10;99.90;;;;;;4970525;28;20033;-53
2024/03/27 06:00:44;;;;;;;6.38;2.45;;;8.10;99.90;;;;;;4969815;28;20110;-58
2024/03/27 06:03:09;;;;;;;6.78;2.33;;;8.10;99.90;;;;;;4969991;28;20051;-55
2024/03/27 06:05:38;;;;;;;6.43;2.75;;;8.20;99.90;;;;;;4971073;28;20066;-56
2024/03/27 06:08:05;;;;;;;7.05;2.63;;;8.20;99.90;;;;;;4970263;28;20076;-55
2024/03/27 06:10:30;;;;;;;5.47;2.08;;;8.20;99.90;;;;;;4970472;28;20043;-53
2024/03/27 06:12:56;;;;;;;9.32;2.20;;;8.20;99.90;;;;;;4971582;28;20081;-54
2024/03/27 06:15:24;;;;;;;6.60;1.48;;;8.20;99.90;;;;;;4970096;28;20030;-57
2024/03/27 06:17:51;;;;;;;6.35;2.85;;;8.30;99.90;;;;;;4968454;28;20034;-55
2024/03/27 06:20:17;;;;;;;6.97;2.30;;;8.30;99.90;;;;;;4965292;28;20019;-56
2024/03/27 06:22:43;;;;;;;4.38;2.17;;;8.30;99.90;;;;;;4970493;28;20029;-54
2024/03/27 06:25:09;;;;;;;6.90;2.53;;;8.40;99.90;;;;;;4971048;28;20019;-54
2024/03/27 06:27:34;;;;;;;3.97;2.10;;;8.40;99.90;;;;;;4970725;28;20447;-55
2024/03/27 06:30:01;;;;;;;7.30;2.83;;;8.50;99.90;;;;;;4970388;28;20062;-55
2024/03/27 06:32:26;;;;;;;5.65;2.78;;;8.60;99.90;;;;;;4970278;28;20514;-53
2024/03/27 06:34:52;;;;;;;3.45;2.08;;;8.70;99.90;;;;;;4969658;28;20030;-57
2024/03/27 06:37:18;;;;;;;4.30;2.33;;;8.80;99.90;;;;;;4970209;28;20031;-57
2024/03/27 06:39:43;;;;;;;3.65;2.05;;;8.80;99.90;;;;;;4969186;28;20031;-58
2024/03/27 06:42:09;;;;;;;4.38;2.30;;;8.90;99.90;;;;;;4970479;28;20031;-57
2024/03/27 06:44:35;;;;;;;3.75;2.30;;;8.90;99.90;;;;;;4972743;28;20392;-54
2024/03/27 06:47:02;;;;;;;3.85;1.95;;;9.00;99.90;;;;;;4973101;28;20030;-56
2024/03/27 06:49:33;;;;;;;4.53;1.98;;;9.00;99.90;;;;;;4971115;28;20050;-57
2024/03/27 06:51:59;;;;;;;7.63;2.10;;;9.10;99.90;;;;;;4972503;28;20030;-56
2024/03/27 06:54:25;;;;;;;4.00;1.90;;;9.20;99.90;;;;;;4973826;28;20047;-57
2024/03/27 06:56:50;;;;;;;3.53;1.90;;;9.20;99.90;;;;;;4973274;28;20110;-54
2024/03/27 06:59:16;;;;;;;8.25;2.35;;;9.30;99.90;;;;;;4973482;28;20129;-54
2024/03/27 07:01:42;;;;;;;4.38;2.03;;;9.40;99.90;;;;;;4973249;28;20019;-56
2024/03/27 07:04:07;;;;;;;2.90;2.05;;;9.40;99.90;;;;;;4972302;28;20034;-56
2024/03/27 07:06:33;;;;;;;6.88;2.28;;;9.50;99.90;;;;;;4973909;28;20046;-57
2024/03/27 07:08:58;;;;;;;2.95;1.90;;;9.60;99.90;;;;;;4972011;28;20035;-54
2024/03/27 07:11:24;;;;;;;3.22;2.40;;;9.70;99.90;;;;;;4973854;28;20039;-55
2024/03/27 07:13:49;;;;;;;8.02;2.20;;;9.80;99.90;;;;;;4972746;28;20027;-55
2024/03/27 07:16:15;;;;;;;3.28;2.30;;;9.80;99.90;;;;;;4971786;28;20031;-57
2024/03/27 07:18:40;;;;;;;6.93;2.60;;;9.90;99.90;;;;;;4972634;28;20034;-55
2024/03/27 07:21:06;;;;;;;5.30;2.03;;;10.00;99.90;;;;;;4971287;28;20034;-58
2024/03/27 07:23:32;;;;;;;4.65;2.00;;;10.00;99.90;;;;;;4973418;28;20450;-58
2024/03/27 07:25:57;;;;;;;4.40;1.98;;;10.10;99.90;;;;;;4971505;28;20026;-57
2024/03/27 07:28:23;;;;;;;4.05;2.22;;;10.20;99.90;;;;;;4972938;28;20038;-56
2024/03/27 07:30:50;;;;;;;5.13;1.95;;;10.30;99.90;;;;;;4971867;28;20093;-56
2024/03/27 07:33:15;;;;;;;3.90;2.00;;;10.30;99.90;;;;;;4971171;28;20045;-57
2024/03/27 07:35:41;;;;;;;4.55;2.08;;;10.40;99.90;;;;;;4970758;28;20034;-58
2024/03/27 07:38:06;;;;;;;3.72;1.85;;;10.40;99.90;;;;;;4971939;28;20030;-57
2024/03/27 07:40:32;;;;;;;6.93;1.83;;;10.40;99.90;;;;;;4983327;23;20043;-55
2024/03/27 07:42:57;;;;;;;3.80;1.92;;;10.40;99.90;;;;;;4966101;28;20101;-57
2024/03/27 07:45:23;;;;;;;3.70;2.35;;;10.40;99.90;;;;;;4963539;28;20440;-58
2024/03/27 07:47:51;;;;;;;4.45;2.05;;;10.60;99.90;;;;;;4968859;28;20031;-55
2024/03/27 07:50:17;;;;;;;4.80;2.50;;;10.60;99.90;;;;;;4958599;28;20490;-55
2024/03/27 07:52:43;;;;;;;5.22;2.65;;;10.50;99.90;;;;;;4953265;28;20094;-57
2024/03/27 07:55:09;;;;;;;3.90;2.00;;;10.60;99.90;;;;;;4952943;28;20395;-53
2024/03/27 07:57:35;;;;;;;9.20;2.40;;;10.60;99.90;;;;;;4952479;28;20031;-57
2024/03/27 08:00:01;;;;;;;2.65;1.60;;;10.70;99.90;;;;;;4952533;28;20471;-57
2024/03/27 08:02:26;;;;;;;4.13;1.80;;;10.70;99.90;;;;;;4951856;28;20026;-54
2024/03/27 08:04:52;;;;;;;6.90;2.15;;;10.80;99.90;;;;;;4953859;29;20468;-57
2024/03/27 08:07:18;;;;;;;4.20;2.05;;;10.90;99.90;;;;;;4952268;28;20108;-55
2024/03/27 08:09:53;;;;;;;5.32;2.30;;;11.00;99.90;;;;;;4952675;28;20627;-58
2024/03/27 08:12:19;;;;;;;3.40;1.60;;;11.10;99.90;;;;;;4951532;28;20109;-58
2024/03/27 08:14:45;;;;;;;3.35;1.73;;;11.20;99.90;;;;;;4951297;28;20059;-57
2024/03/27 08:17:11;;;;;;;2.85;1.70;;;11.40;99.90;;;;;;4952546;28;20031;-58
2024/03/27 08:19:40;;;;;;;3.42;1.95;;;11.40;99.90;;;;;;4949505;28;20110;-57
2024/03/27 08:22:09;;;;;;;6.07;2.25;;;11.50;99.90;;;;;;4951244;29;20111;-55
2024/03/27 08:24:35;;;;;;;7.78;1.95;;;11.60;99.90;;;;;;4953356;28;20118;-55
2024/03/27 08:27:02;;;;;;;4.60;1.98;;;11.60;99.90;;;;;;4954074;28;20498;-55
2024/03/27 08:29:28;;;;;;;8.82;3.88;;;11.50;99.90;;;;;;4950946;28;20715;-57
2024/03/27 08:31:55;;;;;;;11.95;3.15;;;11.40;99.90;;;;;;4950179;28;20040;-55
2024/03/27 08:34:20;;;;;;;7.20;3.40;;;11.40;99.90;;;;;;4950572;29;20078;-57
2024/03/27 08:36:46;;;;;;;7.60;3.60;;;11.40;99.90;;;;;;4953482;28;20096;-53
2024/03/27 08:39:12;;;;;;;3.10;2.10;;;11.40;99.90;;;;;;4950740;28;20034;-57
2024/03/27 08:41:38;;;;;;;4.75;2.20;;;11.50;99.90;;;;;;4949422;28;20031;-57
2024/03/27 08:44:03;;;;;;;3.28;1.80;;;11.60;99.90;;;;;;4952814;28;20099;-54
2024/03/27 08:46:30;;;;;;;4.88;2.17;;;11.60;99.90;;;;;;4950082;28;20506;-53
2024/03/27 08:48:55;;;;;;;5.35;2.20;;;11.70;99.90;;;;;;4948616;28;20031;-55
2024/03/27 08:51:25;;;;;;;6.75;3.08;;;11.90;99.90;;;;;;4950689;28;20038;-57
2024/03/27 08:53:52;;;;;;;7.35;3.25;;;12.10;99.90;;;;;;4952776;28;20031;-57
2024/03/27 08:56:18;;;;;;;4.75;1.98;;;12.30;99.90;;;;;;4950656;28;20139;-56
2024/03/27 08:58:44;;;;;;;4.80;1.88;;;12.30;99.90;;;;;;4951088;28;20035;-55
2024/03/27 09:01:14;;;;;;;5.00;1.85;;;12.30;99.90;;;;;;4947931;28;20031;-55
2024/03/27 09:03:41;;;;;;;6.03;2.03;;;12.50;99.90;;;;;;4950218;29;20404;-57
2024/03/27 09:06:07;;;;;;;6.70;1.88;;;12.50;99.90;;;;;;4950254;28;20049;-53
2024/03/27 09:08:33;;;;;;;3.50;2.13;;;12.50;99.90;;;;;;4950137;29;20065;-56
2024/03/27 09:10:59;;;;;;;12.55;2.72;;;12.50;99.90;;;;;;4952627;28;20121;-58
2024/03/27 09:13:25;;;;;;;4.95;2.80;;;12.50;99.90;;;;;;4953878;28;20034;-54
2024/03/27 09:15:51;;;;;;;4.22;2.28;;;12.60;99.90;;;;;;4953920;28;20031;-58
2024/03/27 09:18:17;;;;;;;3.22;2.22;;;12.60;99.90;;;;;;4960019;28;20035;-58
2024/03/27 09:20:43;;;;;;;4.05;2.25;;;12.80;99.90;;;;;;4946804;28;20439;-57
2024/03/27 09:23:08;;;;;;;7.95;2.65;;;12.80;99.90;;;;;;4949724;29;20061;-56
2024/03/27 09:25:34;;;;;;;2.63;1.60;;;12.80;99.90;;;;;;4952046;28;20111;-58
2024/03/27 09:27:59;;;;;;;4.47;1.95;;;12.90;99.90;;;;;;4951602;29;20075;-57
2024/03/27 09:30:25;;;;;;;4.63;1.55;;;13.00;99.90;;;;;;4948507;28;20089;-56
2024/03/27 09:32:50;;;;;;;3.33;1.55;;;13.00;99.90;;;;;;4949716;29;20027;-58
2024/03/27 09:35:16;;;;;;;6.57;1.30;;;13.00;99.90;;;;;;4951476;28;20031;-57
2024/03/27 09:37:42;;;;;;;3.65;1.75;;;12.90;99.90;;;;;;4950082;28;20169;-56
2024/03/27 09:40:08;;;;;;;2.55;1.80;;;12.90;99.90;;;;;;4950682;28;20798;-58
2024/03/27 09:42:36;;;;;;;5.55;1.45;;;13.10;99.90;;;;;;4949566;28;20049;-58
2024/03/27 09:45:02;;;;;;;5.45;1.90;;;13.10;99.90;;;;;;4952695;29;20102;-57
2024/03/27 09:47:31;;;;;;;10.30;2.05;;;13.20;99.90;;;;;;4950438;28;20035;-58
2024/03/27 09:49:57;;;;;;;3.63;1.67;;;13.10;99.90;;;;;;4951896;28;20038;-58
2024/03/27 09:52:24;;;;;;;5.07;1.55;;;13.00;99.90;;;;;;4947488;28;20035;-53
2024/03/27 09:54:51;;;;;;;3.33;1.45;;;13.00;99.90;;;;;;4950973;29;20069;-55
2024/03/27 09:57:17;;;;;;;4.32;1.70;;;13.00;99.90;;;;;;4952290;28;20042;-54
2024/03/27 09:59:43;;;;;;;2.22;1.55;;;12.90;99.90;;;;;;4949807;28;20035;-55
2024/03/27 10:02:12;;;;;;;2.30;1.35;;;13.00;99.90;;;;;;4946461;28;20027;-58
2024/03/27 10:04:38;;;;;;;4.32;1.20;;;12.80;99.90;;;;;;4949710;29;20027;-55
2024/03/27 10:07:04;;;;;;;2.90;1.20;;;12.70;99.90;;;;;;4951257;29;20376;-55
2024/03/27 10:09:30;;;;;;;1.83;1.00;;;12.50;99.90;;;;;;4952384;28;20030;-55
2024/03/27 10:11:55;;;;;;;1.13;1.02;;;12.50;99.90;;;;;;4949578;29;20035;-54
2024/03/27 10:14:21;;;;;;;3.00;0.93;;;12.50;99.90;;;;;;4949255;28;20028;-53
2024/03/27 10:16:47;;;;;;;1.35;0.95;;;12.60;99.90;;;;;;4949627;29;20099;-58
2024/03/27 10:19:13;;;;;;;2.78;0.77;;;12.80;99.90;;;;;;4955933;28;20047;-53
2024/03/27 10:21:38;;;;;;;3.10;0.68;;;12.90;99.90;;;;;;4951616;29;20023;-58
2024/03/27 10:24:06;;;;;;;1.58;1.20;;;12.90;99.90;;;;;;4946004;28;20032;-58
2024/03/27 10:26:32;;;;;;;1.42;1.00;;;13.00;99.90;;;;;;4955982;28;20027;-57
2024/03/27 10:28:58;;;;;;;2.05;1.00;;;13.40;99.90;;;;;;4953954;28;20543;-57
2024/03/27 10:31:25;;;;;;;7.60;2.60;;;13.70;99.90;;;;;;4955799;28;20043;-58
2024/03/27 10:33:51;;;;;;;5.57;3.00;;;13.90;99.90;;;;;;4952964;29;20074;-59
2024/03/27 10:36:23;;;;;;;7.38;3.00;;;13.80;99.90;;;;;;4953456;29;20031;-57
2024/03/27 10:38:57;;;;;;;8.60;3.55;;;13.60;99.90;;;;;;4946133;28;20086;-57
2024/03/27 10:41:25;;;;;;;3.17;1.83;;;13.50;99.90;;;;;;4947713;29;20027;-58
2024/03/27 10:43:55;;;;;;;1.23;0.90;;;13.70;99.90;;;;;;4955413;28;20069;-56
2024/03/27 10:46:22;;;;;;;1.25;0.90;;;13.80;99.90;;;;;;4952694;29;20071;-57
2024/03/27 10:48:48;;;;;;;0.82;0.82;;;13.70;99.90;;;;;;4952658;28;20031;-57
2024/03/27 10:51:14;;;;;;;1.02;0.88;;;13.80;99.90;;;;;;4954403;28;20036;-59
2024/03/27 10:53:41;;;;;;;1.48;1.02;;;13.80;99.90;;;;;;4954407;28;20062;-58
2024/03/27 10:56:10;;;;;;;2.55;1.25;;;13.80;99.90;;;;;;4952725;28;20508;-56
2024/03/27 10:58:36;;;;;;;2.22;1.02;;;14.00;99.90;;;;;;4952073;28;20530;-56
2024/03/27 11:01:02;;;;;;;1.70;1.02;;;14.00;99.90;;;;;;4951747;29;20023;-55
2024/03/27 11:03:29;;;;;;;0.73;0.73;;;14.20;99.90;;;;;;4950094;28;20042;-56
2024/03/27 11:06:00;;;;;;;1.30;1.20;;;14.10;99.90;;;;;;4950439;29;20038;-56
2024/03/27 11:08:30;;;;;;;1.85;1.27;;;13.90;99.90;;;;;;4966905;28;20147;-57
2024/03/27 11:11:09;;;;;;;1.40;1.30;;;14.10;99.90;;;;;;4953008;28;20075;-55
2024/03/27 11:13:35;;;;;;;0.93;0.90;;;14.20;99.90;;;;;;4952229;29;20042;-57
2024/03/27 11:16:01;;;;;;;1.05;0.75;;;14.10;99.90;;;;;;4952387;28;20032;-58
2024/03/27 11:18:32;;;;;;;3.97;1.10;;;13.90;99.90;;;;;;4951083;28;20503;-57
2024/03/27 11:20:58;;;;;;;0.93;0.82;;;13.80;99.90;;;;;;4953366;29;20103;-58
2024/03/27 11:23:33;;;;;;;4.97;0.73;;;13.70;99.90;;;;;;4953083;28;20090;-56
2024/03/27 11:25:59;;;;;;;1.42;1.00;;;13.70;99.90;;;;;;4950442;29;20065;-57
2024/03/27 11:28:24;;;;;;;1.60;1.30;;;13.80;99.90;;;;;;4951335;29;20094;-57
2024/03/27 11:30:50;;;;;;;7.07;1.10;;;13.60;99.90;;;;;;4951451;28;20047;-56
2024/03/27 11:33:16;;;;;;;1.38;0.88;;;13.50;99.90;;;;;;4951143;29;20546;-56
2024/03/27 11:35:42;;;;;;;2.70;1.10;;;13.50;99.90;;;;;;4951918;28;20053;-54
2024/03/27 11:38:08;;;;;;;3.90;1.23;;;13.60;99.90;;;;;;4950961;28;20098;-57
2024/03/27 11:40:34;;;;;;;3.83;1.38;;;13.60;99.90;;;;;;4950997;28;20120;-56
2024/03/27 11:43:02;;;;;;;2.25;1.30;;;13.50;99.90;;;;;;4951999;29;20047;-56
2024/03/27 11:45:28;;;;;;;1.17;0.80;;;13.40;99.90;;;;;;4948890;29;20069;-56
2024/03/27 11:47:55;;;;;;;1.63;1.20;;;13.50;99.90;;;;;;4945942;28;20024;-57
2024/03/27 11:50:22;;;;;;;2.70;1.30;;;13.50;99.90;;;;;;4947755;29;20054;-57
2024/03/27 11:52:48;;;;;;;2.28;1.08;;;13.40;99.90;;;;;;4945055;29;20483;-57
2024/03/27 11:55:14;;;;;;;2.78;1.13;;;13.30;99.90;;;;;;4951248;28;20023;-57
2024/03/27 11:57:40;;;;;;;1.65;1.13;;;13.30;99.90;;;;;;4952561;28;20102;-57
2024/03/27 12:00:11;;;;;;;1.52;1.30;;;13.30;99.90;;;;;;4951877;28;20110;-56
2024/03/27 12:02:37;;;;;;;2.22;1.30;;;13.30;99.90;;;;;;4949759;28;20034;-58
2024/03/27 12:05:04;;;;;;;1.75;1.10;;;13.40;99.90;;;;;;4945829;28;20034;-53
2024/03/27 12:07:31;;;;;;;2.20;1.23;;;13.60;99.90;;;;;;4951737;28;20039;-54
2024/03/27 12:10:00;;;;;;;1.20;1.00;;;13.80;99.90;;;;;;4950160;29;20069;-55
2024/03/27 12:12:26;;;;;;;1.67;1.27;;;13.60;99.90;;;;;;4951905;28;20910;-58
2024/03/27 12:14:53;;;;;;;3.05;0.93;;;13.40;99.90;;;;;;4949795;29;20569;-53
2024/03/27 12:17:21;;;;;;;2.45;1.50;;;13.40;99.90;;;;;;4948137;28;20036;-58
2024/03/27 12:19:53;;;;;;;2.20;1.10;;;13.20;99.90;;;;;;4950286;29;20035;-56
2024/03/27 12:22:20;;;;;;;1.73;1.20;;;13.00;99.90;;;;;;4948208;29;20059;-54
2024/03/27 12:24:50;;;;;;;1.77;1.25;;;12.80;99.90;;;;;;4950458;28;20487;-57
2024/03/27 12:27:28;;;;;;;3.47;1.23;;;12.80;99.90;;;;;;4952374;29;20030;-57
2024/03/27 12:29:54;;;;;;;4.35;2.20;;;12.80;99.90;;;;;;4950881;28;20038;-57
2024/03/27 12:32:21;;;;;;;1.67;1.02;;;12.90;99.90;;;;;;4950287;29;20364;-56
2024/03/27 12:34:47;;;;;;;5.63;1.52;;;12.80;99.90;;;;;;4951962;28;20052;-58
2024/03/27 12:37:14;;;;;;;2.78;1.48;;;12.50;99.90;;;;;;4948523;28;20054;-56
2024/03/27 12:39:41;;;;;;;2.55;1.63;;;12.50;99.90;;;;;;4951855;28;20054;-56
2024/03/27 12:42:06;;;;;;;3.72;1.63;;;12.60;99.90;;;;;;4948731;28;20496;-57
2024/03/27 12:44:32;;;;;;;1.83;1.52;;;12.50;99.90;;;;;;4951714;28;20065;-57
2024/03/27 12:46:58;;;;;;;1.92;1.50;;;12.50;99.90;;;;;;4952476;29;20031;-58
2024/03/27 12:49:24;;;;;;;2.20;1.45;;;12.60;99.90;;;;;;4952156;28;20038;-53